Time;durP1;ratioP1;P1;durP2;ratioP2;P2;SDS_P1;SDS_P2;PMS_P1;PMS_P2;Temp;Humidity;BMP_temperature;BMP_pressure;BME280_temperature;BME280_humidity;BME280_pressure;Samples;Min_cycle;Max_cycle;Signal;HPM_P1;HPM_P2
2022/12/10 00:00:27;;;;;;;;;;;;;;;;;;5072956;28;1130;-73
2022/12/10 00:02:55;;;;;;;;;;;;;;;;;;5053426;28;1252;-73
2022/12/10 00:05:21;;;;;;;;;;;;;;;;;;5054215;28;1118;-74
2022/12/10 00:07:48;;;;;;;;;;;;;;;;;;5054268;28;1274;-73
2022/12/10 00:10:14;;;;;;;;;;;;;;;;;;5054195;28;1063;-73
2022/12/10 00:12:40;;;;;;;;;;;;;;;;;;5053459;28;1106;-73
2022/12/10 00:15:06;;;;;;;;;;;;;;;;;;5054069;28;1914;-72
2022/12/10 00:17:32;;;;;;;;;;;;;;;;;;5053746;28;1296;-73
2022/12/10 00:19:58;;;;;;;;;;;;;;;;;;5054173;28;1020;-73
2022/12/10 00:22:24;;;;;;;;;;;;;;;;;;5053011;28;1052;-73
2022/12/10 00:24:50;;;;;;;;;;;;;;;;;;5053887;28;865;-73
2022/12/10 00:27:16;;;;;;;;;;;;;;;;;;5052612;28;1320;-73
2022/12/10 00:29:42;;;;;;;;;;;;;;;;;;5054103;28;845;-73
2022/12/10 00:32:09;;;;;;;;;;;;;;;;;;5051881;28;1676;-73
2022/12/10 00:34:35;;;;;;;;;;;;;;;;;;5053824;28;1911;-73
2022/12/10 00:37:01;;;;;;;;;;;;;;;;;;5052524;28;1328;-73
2022/12/10 00:39:28;;;;;;;;;;;;;;;;;;5052463;28;1290;-73
2022/12/10 00:41:54;;;;;;;;;;;;;;;;;;5051703;28;1280;-71
2022/12/10 00:44:20;;;;;;;;;;;;;;;;;;5053535;28;921;-73
2022/12/10 00:46:46;;;;;;;;;;;;;;;;;;5053526;28;1308;-73
2022/12/10 00:49:13;;;;;;;;;;;;;;;;;;5053354;28;968;-73
2022/12/10 00:51:39;;;;;;;;;;;;;;;;;;5051304;28;1249;-73
2022/12/10 00:54:05;;;;;;;;;;;;;;;;;;5052324;28;1973;-71
2022/12/10 00:56:32;;;;;;;;;;;;;;;;;;5052386;28;1408;-73
2022/12/10 00:58:58;;;;;;;;;;;;;;;;;;5053914;28;1112;-73
2022/12/10 01:01:24;;;;;;;;;;;;;;;;;;5054093;28;1222;-73
2022/12/10 01:03:51;;;;;;;;;;;;;;;;;;5054840;28;1196;-73
2022/12/10 01:06:17;;;;;;;;;;;;;;;;;;5051950;28;1415;-73
2022/12/10 01:08:43;;;;;;;;;;;;;;;;;;5053338;28;1064;-72
2022/12/10 01:11:09;;;;;;;;;;;;;;;;;;5051867;28;1445;-73
2022/12/10 01:13:35;;;;;;;;;;;;;;;;;;5052458;28;806;-73
2022/12/10 01:16:02;;;;;;;;;;;;;;;;;;5053173;28;1975;-73
2022/12/10 01:18:28;;;;;;;;;;;;;;;;;;5052858;28;990;-73
2022/12/10 01:20:54;;;;;;;;;;;;;;;;;;5053155;28;1459;-73
2022/12/10 01:23:20;;;;;;;;;;;;;;;;;;5071922;28;1098;-74
2022/12/10 01:25:46;;;;;;;;;;;;;;;;;;5072951;28;929;-73
2022/12/10 01:28:12;;;;;;;;;;;;;;;;;;5071003;28;1304;-73
2022/12/10 01:30:39;;;;;;;;;;;;;;;;;;5072224;28;798;-73
2022/12/10 01:33:05;;;;;;;;;;;;;;;;;;5070546;28;1131;-73
2022/12/10 01:35:33;;;;;;;;;;;;;;;;;;5072488;28;1973;-73
2022/12/10 01:37:59;;;;;;;;;;;;;;;;;;5072311;28;1332;-73
2022/12/10 01:40:25;;;;;;;;;;;;;;;;;;5071050;28;1330;-73
2022/12/10 01:42:51;;;;;;;;;;;;;;;;;;5070248;28;1378;-74
2022/12/10 01:45:17;;;;;;;;;;;;;;;;;;5071050;28;1118;-74
2022/12/10 01:47:43;;;;;;;;;;;;;;;;;;5070930;28;1351;-73
2022/12/10 01:50:10;;;;;;;;;;;;;;;;;;5070890;28;1083;-73
2022/12/10 01:52:37;;;;;;;;;;;;;;;;;;5071605;28;815;-74
2022/12/10 01:55:03;;;;;;;;;;;;;;;;;;5072046;28;1977;-74
2022/12/10 01:57:29;;;;;;;;;;;;;;;;;;5071919;28;1414;-73
2022/12/10 01:59:56;;;;;;;;;;;;;;;;;;5070798;28;1131;-73
2022/12/10 02:02:22;;;;;;;;;;;;;;;;;;5069937;28;1430;-73
2022/12/10 02:04:48;;;;;;;;;;;;;;;;;;5071876;28;1063;-72
2022/12/10 02:07:16;;;;;;;;;;;;;;;;;;5068642;28;1282;-73
2022/12/10 02:09:43;;;;;;;;;;;;;;;;;;5051734;28;1215;-73
2022/12/10 02:12:09;;;;;;;;;;;;;;;;;;5049703;28;1144;-74
2022/12/10 02:14:36;;;;;;;;;;;;;;;;;;5050338;28;1914;-73
2022/12/10 02:17:03;;;;;;;;;;;;;;;;;;5050252;28;1333;-73
2022/12/10 02:19:29;;;;;;;;;;;;;;;;;;5051501;28;1015;-73
2022/12/10 02:21:55;;;;;;;;;;;;;;;;;;5049665;28;1323;-73
2022/12/10 02:24:22;;;;;;;;;;;;;;;;;;5050165;28;1202;-73
2022/12/10 02:26:49;;;;;;;;;;;;;;;;;;5050367;28;1387;-73
2022/12/10 02:29:15;;;;;;;;;;;;;;;;;;5050200;28;1471;-72
2022/12/10 02:31:41;;;;;;;;;;;;;;;;;;5049634;28;1472;-73
2022/12/10 02:34:07;;;;;;;;;;;;;;;;;;5050080;28;1249;-73
2022/12/10 02:36:33;;;;;;;;;;;;;;;;;;5050084;28;1992;-73
2022/12/10 02:38:59;;;;;;;;;;;;;;;;;;5051489;28;906;-73
2022/12/10 02:41:25;;;;;;;;;;;;;;;;;;5048730;28;1420;-73
2022/12/10 02:43:51;;;;;;;;;;;;;;;;;;5050496;28;1338;-73
2022/12/10 02:46:17;;;;;;;;;;;;;;;;;;5049885;28;1438;-73
2022/12/10 02:48:44;;;;;;;;;;;;;;;;;;5050141;28;1210;-73
2022/12/10 02:51:10;;;;;;;;;;;;;;;;;;5050078;28;1337;-73
2022/12/10 02:53:37;;;;;;;;;;;;;;;;;;5049682;28;1565;-74
2022/12/10 02:56:03;;;;;;;;;;;;;;;;;;5049898;28;1906;-74
2022/12/10 02:58:30;;;;;;;;;;;;;;;;;;5049979;28;1468;-73
2022/12/10 03:00:56;;;;;;;;;;;;;;;;;;5050034;28;1500;-73
2022/12/10 03:03:22;;;;;;;;;;;;;;;;;;5050172;28;834;-73
2022/12/10 03:05:48;;;;;;;;;;;;;;;;;;5051133;28;1130;-73
2022/12/10 03:08:14;;;;;;;;;;;;;;;;;;5050892;28;1339;-73
2022/12/10 03:10:41;;;;;;;;;;;;;;;;;;5051317;28;1153;-74
2022/12/10 03:13:07;;;;;;;;;;;;;;;;;;5049065;28;1096;-73
2022/12/10 03:15:33;;;;;;;;;;;;;;;;;;5051086;28;1918;-73
2022/12/10 03:17:59;;;;;;;;;;;;;;;;;;5050940;28;1387;-73
2022/12/10 03:20:25;;;;;;;;;;;;;;;;;;5050974;28;1124;-73
2022/12/10 03:22:51;;;;;;;;;;;;;;;;;;5050592;28;846;-73
2022/12/10 03:25:17;;;;;;;;;;;;;;;;;;5049252;28;1704;-73
2022/12/10 03:27:43;;;;;;;;;;;;;;;;;;5049706;28;1458;-72
2022/12/10 03:30:10;;;;;;;;;;;;;;;;;;5059319;28;1510;-71
2022/12/10 03:32:36;;;;;;;;;;;;;;;;;;5070135;28;957;-73
2022/12/10 03:35:02;;;;;;;;;;;;;;;;;;5071002;28;1922;-72
2022/12/10 03:37:28;;;;;;;;;;;;;;;;;;5070984;28;1383;-72
2022/12/10 03:39:54;;;;;;;;;;;;;;;;;;5064508;28;688;-72
2022/12/10 03:42:20;;;;;;;;;;;;;;;;;;5050311;28;1122;-70
2022/12/10 03:44:46;;;;;;;;;;;;;;;;;;5050762;28;933;-73
2022/12/10 03:47:13;;;;;;;;;;;;;;;;;;5050702;28;1369;-72
2022/12/10 03:49:39;;;;;;;;;;;;;;;;;;5050814;28;1076;-72
2022/12/10 03:52:05;;;;;;;;;;;;;;;;;;5050961;28;1055;-72
2022/12/10 03:54:31;;;;;;;;;;;;;;;;;;5054517;28;785;-72
2022/12/10 03:56:57;;;;;;;;;;;;;;;;;;5054432;28;1921;-72
2022/12/10 03:59:23;;;;;;;;;;;;;;;;;;5054360;28;1070;-72
2022/12/10 04:01:49;;;;;;;;;;;;;;;;;;5053772;28;1255;-72
2022/12/10 04:04:15;;;;;;;;;;;;;;;;;;5053967;28;914;-72
2022/12/10 04:06:41;;;;;;;;;;;;;;;;;;5053787;28;1325;-73
2022/12/10 04:09:08;;;;;;;;;;;;;;;;;;5054217;28;839;-73
2022/12/10 04:11:34;;;;;;;;;;;;;;;;;;5053745;28;787;-72
2022/12/10 04:16:44;;;;;;;;;;;;;;;;;;5057604;28;1914;-72
2022/12/10 04:19:10;;;;;;;;;;;;;;;;;;5056032;28;1079;-72
2022/12/10 04:26:59;;;;;;;;;;;;;;;;;;5030993;28;1433;-72
2022/12/10 04:29:25;;;;;;;;;;;;;;;;;;5053737;28;913;-70
2022/12/10 04:31:52;;;;;;;;;;;;;;;;;;5052967;28;1067;-72
2022/12/10 04:34:18;;;;;;;;;;;;;;;;;;5053629;28;798;-72
2022/12/10 04:36:44;;;;;;;;;;;;;;;;;;5053752;28;1914;-72
2022/12/10 04:39:11;;;;;;;;;;;;;;;;;;5053675;28;854;-70
2022/12/10 04:41:37;;;;;;;;;;;;;;;;;;5052952;28;739;-72
2022/12/10 04:44:03;;;;;;;;;;;;;;;;;;5053603;28;1051;-72
2022/12/10 04:46:29;;;;;;;;;;;;;;;;;;5053670;28;1333;-72
2022/12/10 04:48:55;;;;;;;;;;;;;;;;;;5053661;28;1080;-72
2022/12/10 04:51:22;;;;;;;;;;;;;;;;;;5052953;28;898;-72
2022/12/10 04:53:48;;;;;;;;;;;;;;;;;;5053340;28;1084;-72
2022/12/10 04:56:14;;;;;;;;;;;;;;;;;;5053155;28;1887;-72
2022/12/10 04:58:40;;;;;;;;;;;;;;;;;;5053376;28;888;-74
2022/12/10 05:01:06;;;;;;;;;;;;;;;;;;5053177;28;855;-72
2022/12/10 05:03:32;;;;;;;;;;;;;;;;;;5050180;28;1409;-73
2022/12/10 05:05:58;;;;;;;;;;;;;;;;;;5053270;28;1349;-72
2022/12/10 05:08:24;;;;;;;;;;;;;;;;;;5053170;28;1047;-72
2022/12/10 05:10:50;;;;;;;;;;;;;;;;;;5053115;28;862;-72
2022/12/10 05:13:16;;;;;;;;;;;;;;;;;;5050785;28;1422;-72
2022/12/10 05:15:43;;;;;;;;;;;;;;;;;;5053034;28;1968;-73
2022/12/10 05:18:09;;;;;;;;;;;;;;;;;;5078501;22;3598;-79
2022/12/10 05:20:35;;;;;;;;;;;;;;;;;;5087491;28;1069;-79
2022/12/10 05:25:53;;;;;;;;;;;;;;;;;;5073152;28;961;-79
2022/12/10 05:28:19;;;;;;;;;;;;;;;;;;5055407;28;1500;-79
2022/12/10 05:30:45;;;;;;;;;;;;;;;;;;5073382;28;1064;-79
2022/12/10 05:33:11;;;;;;;;;;;;;;;;;;5054808;28;984;-78
2022/12/10 05:35:37;;;;;;;;;;;;;;;;;;5073428;28;1973;-78
2022/12/10 05:38:03;;;;;;;;;;;;;;;;;;5075616;28;1551;-78
2022/12/10 05:40:29;;;;;;;;;;;;;;;;;;5073441;28;885;-79
2022/12/10 05:42:55;;;;;;;;;;;;;;;;;;5071853;28;1050;-77
2022/12/10 05:45:21;;;;;;;;;;;;;;;;;;5072508;28;856;-78
2022/12/10 05:47:47;;;;;;;;;;;;;;;;;;5082069;28;1408;-78
2022/12/10 05:50:13;;;;;;;;;;;;;;;;;;5066193;28;1550;-76
2022/12/10 05:52:40;;;;;;;;;;;;;;;;;;5092195;28;786;-78
2022/12/10 05:55:06;;;;;;;;;;;;;;;;;;5092344;28;1183;-78
2022/12/10 05:57:32;;;;;;;;;;;;;;;;;;5074769;28;1914;-79
2022/12/10 05:59:58;;;;;;;;;;;;;;;;;;5092813;28;1067;-79
2022/12/10 06:02:24;;;;;;;;;;;;;;;;;;5059277;28;1238;-78
2022/12/10 06:04:50;;;;;;;;;;;;;;;;;;5072354;28;774;-78
2022/12/10 06:07:16;;;;;;;;;;;;;;;;;;5072320;28;1373;-78
2022/12/10 06:09:42;;;;;;;;;;;;;;;;;;5072297;28;1118;-79
2022/12/10 06:12:08;;;;;;;;;;;;;;;;;;5071699;28;924;-80
2022/12/10 06:14:34;;;;;;;;;;;;;;;;;;5086876;28;1470;-80
2022/12/10 06:17:00;;;;;;;;;;;;;;;;;;5075593;28;2028;-78
2022/12/10 06:19:26;;;;;;;;;;;;;;;;;;5092194;28;1728;-79
2022/12/10 06:21:52;;;;;;;;;;;;;;;;;;5084858;28;1196;-80
2022/12/10 06:24:19;;;;;;;;;;;;;;;;;;5089394;28;1450;-80
2022/12/10 06:26:45;;;;;;;;;;;;;;;;;;5084159;28;1214;-79
2022/12/10 06:29:11;;;;;;;;;;;;;;;;;;5074901;28;1310;-80
2022/12/10 06:31:37;;;;;;;;;;;;;;;;;;5078328;28;1183;-80
2022/12/10 06:34:03;;;;;;;;;;;;;;;;;;5095121;28;929;-80
2022/12/10 06:36:29;;;;;;;;;;;;;;;;;;5072664;28;1981;-80
2022/12/10 06:38:55;;;;;;;;;;;;;;;;;;5078097;28;1412;-80
2022/12/10 06:41:21;;;;;;;;;;;;;;;;;;5088126;28;1230;-80
2022/12/10 06:43:47;;;;;;;;;;;;;;;;;;5090568;28;1135;-80
2022/12/10 06:46:13;;;;;;;;;;;;;;;;;;5069604;28;1717;-81
2022/12/10 06:48:40;;;;;;;;;;;;;;;;;;5076913;28;1321;-80
2022/12/10 06:51:06;;;;;;;;;;;;;;;;;;5095427;28;1016;-80
2022/12/10 06:53:32;;;;;;;;;;;;;;;;;;5094697;28;937;-80
2022/12/10 06:55:58;;;;;;;;;;;;;;;;;;5095091;28;1898;-80
2022/12/10 06:58:24;;;;;;;;;;;;;;;;;;5094862;28;1310;-80
2022/12/10 07:00:50;;;;;;;;;;;;;;;;;;5094615;28;1075;-81
2022/12/10 07:03:16;;;;;;;;;;;;;;;;;;5093278;28;797;-80
2022/12/10 07:05:42;;;;;;;;;;;;;;;;;;5092237;28;1646;-79
2022/12/10 07:08:09;;;;;;;;;;;;;;;;;;5061035;28;1490;-82
2022/12/10 07:10:35;;;;;;;;;;;;;;;;;;5014076;28;1139;-82
2022/12/10 07:13:01;;;;;;;;;;;;;;;;;;5024852;28;1280;-80
2022/12/10 07:15:28;;;;;;;;;;;;;;;;;;5049862;28;1145;-79
2022/12/10 07:17:54;;;;;;;;;;;;;;;;;;5069513;28;1930;-79
2022/12/10 07:20:20;;;;;;;;;;;;;;;;;;5074903;28;1443;-80
2022/12/10 07:22:46;;;;;;;;;;;;;;;;;;5058094;28;1323;-80
2022/12/10 07:25:12;;;;;;;;;;;;;;;;;;5090200;28;992;-79
2022/12/10 07:27:38;;;;;;;;;;;;;;;;;;5067009;28;1459;-80
2022/12/10 07:30:04;;;;;;;;;;;;;;;;;;5083944;28;1142;-80
2022/12/10 07:32:31;;;;;;;;;;;;;;;;;;5084178;28;1537;-79
2022/12/10 07:34:57;;;;;;;;;;;;;;;;;;5067486;28;1542;-81
2022/12/10 07:37:23;;;;;;;;;;;;;;;;;;5083553;28;1917;-78
2022/12/10 07:39:49;;;;;;;;;;;;;;;;;;5084174;28;1518;-80
2022/12/10 07:42:15;;;;;;;;;;;;;;;;;;5061593;28;1386;-78
2022/12/10 07:44:41;;;;;;;;;;;;;;;;;;5078952;28;1217;-79
2022/12/10 07:47:08;;;;;;;;;;;;;;;;;;5073275;28;1360;-79
2022/12/10 07:49:34;;;;;;;;;;;;;;;;;;5086785;28;1577;-80
2022/12/10 07:52:00;;;;;;;;;;;;;;;;;;5075003;28;1137;-80
2022/12/10 07:54:26;;;;;;;;;;;;;;;;;;5059169;28;1498;-79
2022/12/10 07:56:52;;;;;;;;;;;;;;;;;;5082476;28;2001;-77
2022/12/10 07:59:18;;;;;;;;;;;;;;;;;;5060379;28;1423;-79
2022/12/10 08:01:44;;;;;;;;;;;;;;;;;;5087749;28;1418;-80
2022/12/10 08:04:10;;;;;;;;;;;;;;;;;;5066120;28;1248;-79
2022/12/10 08:06:36;;;;;;;;;;;;;;;;;;5075198;28;1335;-79
2022/12/10 08:09:02;;;;;;;;;;;;;;;;;;5073347;28;1385;-80
2022/12/10 08:11:28;;;;;;;;;;;;;;;;;;5060066;28;1751;-79
2022/12/10 08:13:55;;;;;;;;;;;;;;;;;;5056932;28;1353;-78
2022/12/10 08:16:22;;;;;;;;;;;;;;;;;;5075630;28;1968;-79
2022/12/10 08:18:48;;;;;;;;;;;;;;;;;;5058238;28;1400;-78
2022/12/10 08:21:14;;;;;;;;;;;;;;;;;;5075965;28;806;-80
2022/12/10 08:23:40;;;;;;;;;;;;;;;;;;5079973;28;1148;-79
2022/12/10 08:26:08;;;;;;;;;;;;;;;;;;5107452;28;783;-79
2022/12/10 08:28:34;;;;;;;;;;;;;;;;;;5115796;28;1314;-80
2022/12/10 08:31:00;;;;;;;;;;;;;;;;;;5115946;28;778;-79
2022/12/10 08:33:26;;;;;;;;;;;;;;;;;;5096464;28;1225;-79
2022/12/10 08:35:52;;;;;;;;;;;;;;;;;;5116074;28;1103;-78
2022/12/10 08:38:18;;;;;;;;;;;;;;;;;;5113526;28;1971;-79
2022/12/10 08:40:45;;;;;;;;;;;;;;;;;;5095802;28;1079;-79
2022/12/10 08:43:11;;;;;;;;;;;;;;;;;;5077599;28;1282;-77
2022/12/10 08:45:37;;;;;;;;;;;;;;;;;;5098878;28;1028;-79
2022/12/10 08:48:03;;;;;;;;;;;;;;;;;;5097658;28;1319;-78
2022/12/10 08:50:29;;;;;;;;;;;;;;;;;;5080240;28;1115;-77
2022/12/10 08:52:55;;;;;;;;;;;;;;;;;;5097001;28;935;-78
2022/12/10 08:55:21;;;;;;;;;;;;;;;;;;5100538;28;1123;-79
2022/12/10 08:57:47;;;;;;;;;;;;;;;;;;5089525;28;1910;-78
2022/12/10 09:00:14;;;;;;;;;;;;;;;;;;5090147;28;1220;-79
2022/12/10 09:02:40;;;;;;;;;;;;;;;;;;5085530;28;1150;-79
2022/12/10 09:05:06;;;;;;;;;;;;;;;;;;5096727;28;1226;-78
2022/12/10 09:07:32;;;;;;;;;;;;;;;;;;5078527;28;1592;-79
2022/12/10 09:09:58;;;;;;;;;;;;;;;;;;5097735;28;1134;-79
2022/12/10 09:12:24;;;;;;;;;;;;;;;;;;5096367;28;869;-78
2022/12/10 09:14:50;;;;;;;;;;;;;;;;;;5097334;28;996;-78
2022/12/10 09:17:16;;;;;;;;;;;;;;;;;;5096345;28;1969;-79
2022/12/10 09:19:42;;;;;;;;;;;;;;;;;;5097207;28;892;-78
2022/12/10 09:22:09;;;;;;;;;;;;;;;;;;5078370;28;1176;-78
2022/12/10 09:24:35;;;;;;;;;;;;;;;;;;5079178;28;1429;-79
2022/12/10 09:27:01;;;;;;;;;;;;;;;;;;5078783;28;1312;-78
2022/12/10 09:29:28;;;;;;;;;;;;;;;;;;5078947;28;1182;-77
2022/12/10 09:31:54;;;;;;;;;;;;;;;;;;5096263;28;925;-78
2022/12/10 09:34:21;;;;;;;;;;;;;;;;;;5096420;28;1067;-79
2022/12/10 09:36:47;;;;;;;;;;;;;;;;;;5096715;28;1915;-79
2022/12/10 09:39:13;;;;;;;;;;;;;;;;;;5092754;28;1483;-78
2022/12/10 09:41:39;;;;;;;;;;;;;;;;;;5095720;28;1122;-79
2022/12/10 09:44:05;;;;;;;;;;;;;;;;;;5099224;28;948;-78
2022/12/10 09:46:31;;;;;;;;;;;;;;;;;;5098359;28;1071;-79
2022/12/10 09:48:57;;;;;;;;;;;;;;;;;;5096566;28;1402;-79
2022/12/10 09:51:23;;;;;;;;;;;;;;;;;;5095693;28;1122;-78
2022/12/10 09:53:49;;;;;;;;;;;;;;;;;;5097164;28;1063;-79
2022/12/10 09:56:15;;;;;;;;;;;;;;;;;;5097331;28;1149;-78
2022/12/10 09:58:41;;;;;;;;;;;;;;;;;;5097388;28;2027;-79
2022/12/10 10:01:08;;;;;;;;;;;;;;;;;;5097398;28;1202;-79
2022/12/10 10:03:34;;;;;;;;;;;;;;;;;;5092063;28;1178;-79
2022/12/10 10:06:00;;;;;;;;;;;;;;;;;;5077498;28;858;-79
2022/12/10 10:08:26;;;;;;;;;;;;;;;;;;5077097;28;1269;-79
2022/12/10 10:10:52;;;;;;;;;;;;;;;;;;5063953;28;1546;-79
2022/12/10 10:13:18;;;;;;;;;;;;;;;;;;5074989;28;1932;-78
2022/12/10 10:15:44;;;;;;;;;;;;;;;;;;5060033;28;1860;-79
2022/12/10 10:18:10;;;;;;;;;;;;;;;;;;5077695;28;1921;-79
2022/12/10 10:20:36;;;;;;;;;;;;;;;;;;5098092;28;1138;-79
2022/12/10 10:23:03;;;;;;;;;;;;;;;;;;5097195;28;1068;-79
2022/12/10 10:25:29;;;;;;;;;;;;;;;;;;5077187;28;1206;-79
2022/12/10 10:27:55;;;;;;;;;;;;;;;;;;5095747;28;1432;-79
2022/12/10 10:30:21;;;;;;;;;;;;;;;;;;5095420;28;1079;-79
2022/12/10 10:32:49;;;;;;;;;;;;;;;;;;5095287;28;1106;-79
2022/12/10 10:35:15;;;;;;;;;;;;;;;;;;5095898;28;1142;-79
2022/12/10 10:37:41;;;;;;;;;;;;;;;;;;5095447;28;1984;-80
2022/12/10 10:40:07;;;;;;;;;;;;;;;;;;5096304;28;976;-79
2022/12/10 10:42:33;;;;;;;;;;;;;;;;;;5095126;28;1011;-79
2022/12/10 10:44:59;;;;;;;;;;;;;;;;;;5096283;28;1072;-80
2022/12/10 10:47:25;;;;;;;;;;;;;;;;;;5095161;28;1357;-79
2022/12/10 10:49:53;;;;;;;;;;;;;;;;;;5067017;28;1956;-79
2022/12/10 10:52:19;;;;;;;;;;;;;;;;;;5090202;28;1744;-79
2022/12/10 10:54:45;;;;;;;;;;;;;;;;;;5091027;28;1212;-79
2022/12/10 10:57:11;;;;;;;;;;;;;;;;;;5095720;28;1910;-79
2022/12/10 10:59:37;;;;;;;;;;;;;;;;;;5076144;28;2022;-78
2022/12/10 11:02:04;;;;;;;;;;;;;;;;;;5090086;28;1758;-77
2022/12/10 11:04:30;;;;;;;;;;;;;;;;;;5066656;28;1567;-79
2022/12/10 11:06:56;;;;;;;;;;;;;;;;;;5070791;28;1800;-78
2022/12/10 11:09:22;;;;;;;;;;;;;;;;;;5086035;28;1986;-79
2022/12/10 11:11:49;;;;;;;;;;;;;;;;;;5083877;28;2204;-79
2022/12/10 11:14:16;;;;;;;;;;;;;;;;;;5098186;28;1804;-77
2022/12/10 11:16:42;;;;;;;;;;;;;;;;;;5069870;28;2106;-79
2022/12/10 11:19:08;;;;;;;;;;;;;;;;;;5097250;28;1907;-79
2022/12/10 11:21:34;;;;;;;;;;;;;;;;;;5085579;28;1250;-79
2022/12/10 11:24:00;;;;;;;;;;;;;;;;;;5095441;28;2168;-79
2022/12/10 11:29:03;;;;;;;;;;;;;;;;;;5050628;28;1881;-77
2022/12/10 11:31:29;;;;;;;;;;;;;;;;;;5054542;28;1147;-76
2022/12/10 11:33:55;;;;;;;;;;;;;;;;;;5055036;28;1275;-76
2022/12/10 11:36:21;;;;;;;;;;;;;;;;;;5055575;28;1453;-75
2022/12/10 11:38:47;;;;;;;;;;;;;;;;;;5037960;28;2020;-77
2022/12/10 11:41:14;;;;;;;;;;;;;;;;;;5055744;28;1032;-76
2022/12/10 11:43:40;;;;;;;;;;;;;;;;;;5055827;28;770;-76
2022/12/10 11:46:06;;;;;;;;;;;;;;;;;;5055533;28;787;-77
2022/12/10 11:48:32;;;;;;;;;;;;;;;;;;5055732;28;1361;-77
2022/12/10 11:50:58;;;;;;;;;;;;;;;;;;5055608;28;1444;-77
2022/12/10 11:53:24;;;;;;;;;;;;;;;;;;5054579;28;1124;-77
2022/12/10 11:55:51;;;;;;;;;;;;;;;;;;5056214;28;964;-77
2022/12/10 11:58:17;;;;;;;;;;;;;;;;;;5054802;28;1971;-77
2022/12/10 12:00:43;;;;;;;;;;;;;;;;;;5037688;28;1032;-77
2022/12/10 12:03:09;;;;;;;;;;;;;;;;;;5054193;28;980;-77
2022/12/10 12:05:35;;;;;;;;;;;;;;;;;;5037535;28;1397;-76
2022/12/10 12:08:01;;;;;;;;;;;;;;;;;;5050089;28;1326;-77
2022/12/10 12:10:27;;;;;;;;;;;;;;;;;;5035635;28;1123;-78
2022/12/10 12:12:53;;;;;;;;;;;;;;;;;;5034003;28;1004;-77
2022/12/10 12:15:19;;;;;;;;;;;;;;;;;;5035495;28;1041;-77
2022/12/10 12:17:46;;;;;;;;;;;;;;;;;;5035576;28;1915;-77
2022/12/10 12:20:12;;;;;;;;;;;;;;;;;;5041363;28;771;-76
2022/12/10 12:22:38;;;;;;;;;;;;;;;;;;5045727;28;1104;-77
2022/12/10 12:25:04;;;;;;;;;;;;;;;;;;5053364;28;1790;-75
2022/12/10 12:27:30;;;;;;;;;;;;;;;;;;5057088;28;1493;-75
2022/12/10 12:29:56;;;;;;;;;;;;;;;;;;5054390;28;890;-75
2022/12/10 12:32:22;;;;;;;;;;;;;;;;;;5053752;28;1068;-75
2022/12/10 12:34:48;;;;;;;;;;;;;;;;;;5054580;28;1056;-75
2022/12/10 12:37:14;;;;;;;;;;;;;;;;;;5036640;28;1992;-75
2022/12/10 12:39:40;;;;;;;;;;;;;;;;;;5054639;28;1068;-75
2022/12/10 12:42:06;;;;;;;;;;;;;;;;;;5053685;28;992;-75
2022/12/10 12:44:32;;;;;;;;;;;;;;;;;;5054530;28;1118;-76
2022/12/10 12:46:59;;;;;;;;;;;;;;;;;;5054634;28;1426;-75
2022/12/10 12:49:25;;;;;;;;;;;;;;;;;;5050833;28;1028;-76
2022/12/10 12:51:52;;;;;;;;;;;;;;;;;;5034012;28;1326;-75
2022/12/10 12:54:18;;;;;;;;;;;;;;;;;;5035020;28;996;-76
2022/12/10 12:56:44;;;;;;;;;;;;;;;;;;5034365;28;1400;-75
2022/12/10 12:59:10;;;;;;;;;;;;;;;;;;5034167;28;1918;-76
2022/12/10 13:01:36;;;;;;;;;;;;;;;;;;5039129;28;1508;-76
2022/12/10 13:04:03;;;;;;;;;;;;;;;;;;5054622;28;1124;-76
2022/12/10 13:06:29;;;;;;;;;;;;;;;;;;5047746;28;1326;-76
2022/12/10 13:08:55;;;;;;;;;;;;;;;;;;5035233;28;1221;-76
2022/12/10 13:11:21;;;;;;;;;;;;;;;;;;5038356;28;901;-76
2022/12/10 13:13:47;;;;;;;;;;;;;;;;;;5031714;28;1287;-76
2022/12/10 13:16:13;;;;;;;;;;;;;;;;;;5049996;28;1051;-76
2022/12/10 13:18:40;;;;;;;;;;;;;;;;;;5052207;28;1991;-77
2022/12/10 13:21:06;;;;;;;;;;;;;;;;;;5057690;28;1031;-76
2022/12/10 13:23:32;;;;;;;;;;;;;;;;;;5053303;28;885;-76
2022/12/10 13:25:58;;;;;;;;;;;;;;;;;;5053349;28;1150;-76
2022/12/10 13:28:24;;;;;;;;;;;;;;;;;;5053721;28;1334;-76
2022/12/10 13:30:50;;;;;;;;;;;;;;;;;;5053492;28;906;-76
2022/12/10 13:33:17;;;;;;;;;;;;;;;;;;5052434;28;1134;-75
2022/12/10 13:35:43;;;;;;;;;;;;;;;;;;5053592;28;1587;-76
2022/12/10 13:38:09;;;;;;;;;;;;;;;;;;5025359;28;1985;-77
2022/12/10 13:46:02;;;;;;;;;;;;;;;;;;5015967;28;1412;-77
2022/12/10 13:48:28;;;;;;;;;;;;;;;;;;5020496;28;1409;-76
2022/12/10 13:50:54;;;;;;;;;;;;;;;;;;4983362;28;1599;-76
2022/12/10 13:53:20;;;;;;;;;;;;;;;;;;4986140;28;873;-76
2022/12/10 13:55:47;;;;;;;;;;;;;;;;;;4988103;28;878;-76
2022/12/10 13:58:13;;;;;;;;;;;;;;;;;;4982423;28;2025;-76
2022/12/10 14:00:39;;;;;;;;;;;;;;;;;;4989018;28;906;-75
2022/12/10 14:03:05;;;;;;;;;;;;;;;;;;4985908;28;1765;-76
2022/12/10 14:05:32;;;;;;;;;;;;;;;;;;4986607;28;885;-76
2022/12/10 14:07:58;;;;;;;;;;;;;;;;;;4990265;28;1278;-75
2022/12/10 14:10:24;;;;;;;;;;;;;;;;;;4968909;28;1194;-76
2022/12/10 14:12:51;;;;;;;;;;;;;;;;;;4971370;28;1075;-75
2022/12/10 14:15:18;;;;;;;;;;;;;;;;;;4957359;28;1480;-74
2022/12/10 14:17:44;;;;;;;;;;;;;;;;;;4952988;28;2000;-77
2022/12/10 14:20:11;;;;;;;;;;;;;;;;;;4990030;28;894;-75
2022/12/10 14:22:37;;;;;;;;;;;;;;;;;;4989182;28;956;-75
2022/12/10 14:25:04;;;;;;;;;;;;;;;;;;4966268;28;1167;-74
2022/12/10 14:27:30;;;;;;;;;;;;;;;;;;4986946;28;1289;-74
2022/12/10 14:29:57;;;;;;;;;;;;;;;;;;4979561;28;1005;-75
2022/12/10 14:32:23;;;;;;;;;;;;;;;;;;4959859;28;1739;-75
2022/12/10 14:34:49;;;;;;;;;;;;;;;;;;4984262;28;834;-74
2022/12/10 14:37:15;;;;;;;;;;;;;;;;;;4974518;28;1361;-74
2022/12/10 14:39:42;;;;;;;;;;;;;;;;;;4989508;28;1941;-74
2022/12/10 14:42:08;;;;;;;;;;;;;;;;;;4988571;28;1131;-74
2022/12/10 14:44:34;;;;;;;;;;;;;;;;;;5000109;28;1078;-76
2022/12/10 14:47:00;;;;;;;;;;;;;;;;;;4956421;28;1603;-77
2022/12/10 14:49:27;;;;;;;;;;;;;;;;;;4950967;28;1122;-75
2022/12/10 14:51:54;;;;;;;;;;;;;;;;;;4982991;28;1603;-74
2022/12/10 14:54:20;;;;;;;;;;;;;;;;;;4967391;28;1179;-75
2022/12/10 14:56:47;;;;;;;;;;;;;;;;;;4966606;28;1445;-75
2022/12/10 14:59:14;;;;;;;;;;;;;;;;;;4990013;28;1938;-74
2022/12/10 15:01:40;;;;;;;;;;;;;;;;;;4985724;28;873;-74
2022/12/10 15:04:06;;;;;;;;;;;;;;;;;;4990112;28;996;-74
2022/12/10 15:06:37;;;;;;;;;;;;;;;;;;4985405;28;1428;-75
2022/12/10 15:09:03;;;;;;;;;;;;;;;;;;4963689;28;986;-76
2022/12/10 15:11:30;;;;;;;;;;;;;;;;;;4924173;28;1089;-76
2022/12/10 15:13:56;;;;;;;;;;;;;;;;;;4943827;28;1346;-77
2022/12/10 15:16:23;;;;;;;;;;;;;;;;;;4965337;28;1977;-74
2022/12/10 15:18:49;;;;;;;;;;;;;;;;;;4952671;28;1954;-75
2022/12/10 15:21:17;;;;;;;;;;;;;;;;;;4931950;28;1275;-76
2022/12/10 15:23:43;;;;;;;;;;;;;;;;;;4939807;28;1261;-75
2022/12/10 15:26:10;;;;;;;;;;;;;;;;;;4966824;28;1015;-73
2022/12/10 15:28:36;;;;;;;;;;;;;;;;;;4987190;28;1324;-74
2022/12/10 15:31:02;;;;;;;;;;;;;;;;;;4989599;28;891;-75
2022/12/10 15:33:28;;;;;;;;;;;;;;;;;;4984498;28;1028;-74
2022/12/10 15:35:55;;;;;;;;;;;;;;;;;;4975049;28;929;-75
2022/12/10 15:38:21;;;;;;;;;;;;;;;;;;4986963;28;1938;-75
2022/12/10 15:40:47;;;;;;;;;;;;;;;;;;4979370;28;1032;-75
2022/12/10 15:43:13;;;;;;;;;;;;;;;;;;4975744;28;1420;-74
2022/12/10 15:45:40;;;;;;;;;;;;;;;;;;4982263;28;1449;-75
2022/12/10 15:48:06;;;;;;;;;;;;;;;;;;4985721;28;1451;-75
2022/12/10 15:50:32;;;;;;;;;;;;;;;;;;4955422;28;1140;-75
2022/12/10 15:52:59;;;;;;;;;;;;;;;;;;4961236;28;842;-75
2022/12/10 15:55:25;;;;;;;;;;;;;;;;;;4968022;28;1602;-75
2022/12/10 15:57:52;;;;;;;;;;;;;;;;;;4990281;28;1561;-76
2022/12/10 16:00:18;;;;;;;;;;;;;;;;;;4991075;28;2127;-75
2022/12/10 16:02:44;;;;;;;;;;;;;;;;;;5026953;28;1368;-75
2022/12/10 16:05:11;;;;;;;;;;;;;;;;;;5043097;28;1190;-76
2022/12/10 16:07:37;;;;;;;;;;;;;;;;;;5016757;28;1731;-76
2022/12/10 16:10:03;;;;;;;;;;;;;;;;;;5017650;28;1251;-76
2022/12/10 16:12:29;;;;;;;;;;;;;;;;;;5015808;28;1235;-76
2022/12/10 16:14:56;;;;;;;;;;;;;;;;;;5019834;28;1188;-76
2022/12/10 16:17:22;;;;;;;;;;;;;;;;;;5036298;28;1428;-75
2022/12/10 16:19:48;;;;;;;;;;;;;;;;;;5034894;28;1911;-75
2022/12/10 16:22:14;;;;;;;;;;;;;;;;;;5033601;28;1056;-76
2022/12/10 16:24:40;;;;;;;;;;;;;;;;;;5034700;28;961;-76
2022/12/10 16:27:06;;;;;;;;;;;;;;;;;;5034393;28;1337;-75
2022/12/10 16:29:32;;;;;;;;;;;;;;;;;;5016375;28;1129;-75
2022/12/10 16:31:58;;;;;;;;;;;;;;;;;;5016139;28;1177;-75
2022/12/10 16:34:24;;;;;;;;;;;;;;;;;;5034321;28;1072;-76
2022/12/10 16:36:51;;;;;;;;;;;;;;;;;;5043192;28;1524;-77
2022/12/10 16:39:17;;;;;;;;;;;;;;;;;;5044317;28;1985;-75
2022/12/10 16:41:43;;;;;;;;;;;;;;;;;;5050212;28;1171;-75
2022/12/10 16:44:09;;;;;;;;;;;;;;;;;;5019875;28;1451;-75
2022/12/10 16:46:35;;;;;;;;;;;;;;;;;;5008186;28;1677;-75
2022/12/10 16:49:02;;;;;;;;;;;;;;;;;;5000349;28;1074;-75
2022/12/10 16:51:28;;;;;;;;;;;;;;;;;;4993067;28;805;-76
2022/12/10 16:53:55;;;;;;;;;;;;;;;;;;4992593;28;917;-74
2022/12/10 16:56:21;;;;;;;;;;;;;;;;;;4986895;28;1432;-73
2022/12/10 16:58:47;;;;;;;;;;;;;;;;;;4987893;28;1938;-74
2022/12/10 17:01:13;;;;;;;;;;;;;;;;;;4989789;28;925;-77
2022/12/10 17:03:40;;;;;;;;;;;;;;;;;;4974925;28;965;-76
2022/12/10 17:06:06;;;;;;;;;;;;;;;;;;4987137;28;898;-76
2022/12/10 17:08:32;;;;;;;;;;;;;;;;;;4985628;28;1446;-75
2022/12/10 17:13:43;;;;;;;;;;;;;;;;;;4990220;28;1025;-76
2022/12/10 17:16:09;;;;;;;;;;;;;;;;;;4987653;28;869;-76
2022/12/10 17:18:35;;;;;;;;;;;;;;;;;;4984856;28;2004;-76